Time;durP1;ratioP1;P1;durP2;ratioP2;P2;SDS_P1;SDS_P2;PMS_P1;PMS_P2;Temp;Humidity;BMP_temperature;BMP_pressure;BME280_temperature;BME280_humidity;BME280_pressure;Samples;Min_cycle;Max_cycle;Signal;HPM_P1;HPM_P2
2023/07/10 00:02:56;;;;;;;;;;;;;;;22.04;100.00;95986.44;10547182;28;2133;-70
2023/07/10 00:07:59;;;;;;;;;;;;;;;21.98;100.00;95981.53;10539380;28;2210;-70
2023/07/10 00:13:01;;;;;;;;;;;;;;;22.05;100.00;95982.56;10544989;28;2112;-70
2023/07/10 00:18:04;;;;;;;;;;;;;;;22.08;100.00;95984.63;10543371;28;1989;-70
2023/07/10 00:23:06;;;;;;;;;;;;;;;22.05;100.00;95979.81;10545857;28;2065;-70
2023/07/10 00:28:09;;;;;;;;;;;;;;;22.12;100.00;95982.81;10546830;28;1985;-74
2023/07/10 00:33:11;;;;;;;;;;;;;;;22.05;100.00;95979.03;10550240;28;2012;-71
2023/07/10 00:38:14;;;;;;;;;;;;;;;21.96;100.00;95978.34;10543502;28;2029;-70
2023/07/10 00:43:16;;;;;;;;;;;;;;;21.90;100.00;95977.78;10551395;28;2208;-70
2023/07/10 00:48:19;;;;;;;;;;;;;;;21.81;100.00;95972.41;10542753;28;2058;-70
2023/07/10 00:53:21;;;;;;;;;;;;;;;21.72;100.00;95970.91;10544733;28;1981;-70
2023/07/10 00:58:24;;;;;;;;;;;;;;;21.67;100.00;95971.13;10547133;27;1996;-70
2023/07/10 01:03:32;;;;;;;;;;;;;;;21.57;100.00;95967.72;10550064;27;2182;-71
2023/07/10 01:08:34;;;;;;;;;;;;;;;21.52;100.00;95967.94;10551387;27;2604;-72
2023/07/10 01:13:37;;;;;;;;;;;;;;;21.45;100.00;95964.94;10554877;27;2153;-69
2023/07/10 01:18:40;;;;;;;;;;;;;;;21.45;100.00;95966.88;10549161;27;2100;-71
2023/07/10 01:23:42;;;;;;;;;;;;;;;21.46;100.00;95963.00;10549939;27;2148;-70
2023/07/10 01:28:45;;;;;;;;;;;;;;;21.31;100.00;95958.97;10556086;27;2155;-71
2023/07/10 01:33:47;;;;;;;;;;;;;;;21.39;100.00;95952.63;10549226;27;2221;-70
2023/07/10 01:38:50;;;;;;;;;;;;;;;21.33;100.00;95944.97;10555273;27;2240;-71
2023/07/10 01:43:55;;;;;;;;;;;;;;;21.34;100.00;95936.44;10549613;27;4568;-71
2023/07/10 01:48:57;;;;;;;;;;;;;;;21.26;100.00;95942.78;10533253;27;1986;-71
2023/07/10 01:54:00;;;;;;;;;;;;;;;21.26;100.00;95945.50;10548734;27;2134;-71
2023/07/10 01:59:02;;;;;;;;;;;;;;;21.26;100.00;95945.50;10550835;27;1993;-71
2023/07/10 02:04:05;;;;;;;;;;;;;;;21.17;100.00;95958.44;10546622;27;2444;-71
2023/07/10 02:09:07;;;;;;;;;;;;;;;21.01;100.00;95961.81;10550480;27;2326;-71
2023/07/10 02:14:10;;;;;;;;;;;;;;;20.98;100.00;95969.88;10551030;27;2067;-70
2023/07/10 02:19:12;;;;;;;;;;;;;;;20.80;100.00;95974.69;10551146;27;2054;-71
2023/07/10 02:24:15;;;;;;;;;;;;;;;20.75;100.00;95981.16;10551351;27;2001;-70
2023/07/10 02:29:17;;;;;;;;;;;;;;;20.57;100.00;95995.28;10550706;27;2087;-70
2023/07/10 02:34:19;;;;;;;;;;;;;;;20.39;100.00;96000.81;10549831;27;2055;-68
2023/07/10 02:39:22;;;;;;;;;;;;;;;20.33;100.00;95995.88;10550234;27;2101;-71
2023/07/10 02:44:24;;;;;;;;;;;;;;;20.28;100.00;96005.06;10554460;27;4493;-68
2023/07/10 02:49:27;;;;;;;;;;;;;;;20.19;100.00;95996.13;10549132;27;2233;-69
2023/07/10 02:54:29;;;;;;;;;;;;;;;20.12;100.00;95995.84;10546404;27;2271;-70
2023/07/10 02:59:32;;;;;;;;;;;;;;;20.11;100.00;95986.06;10547908;27;1958;-69
2023/07/10 03:04:34;;;;;;;;;;;;;;;20.14;100.00;95971.75;10546942;27;2344;-69
2023/07/10 03:09:37;;;;;;;;;;;;;;;20.01;100.00;95967.31;10546647;27;2097;-69
2023/07/10 03:14:39;;;;;;;;;;;;;;;19.94;100.00;95955.00;10544407;27;2035;-69
2023/07/10 03:19:41;;;;;;;;;;;;;;;19.93;100.00;95961.59;10545884;27;2129;-69
2023/07/10 03:24:44;;;;;;;;;;;;;;;20.09;100.00;95958.28;10547200;28;2083;-70
2023/07/10 03:29:46;;;;;;;;;;;;;;;20.28;100.00;95960.59;10546328;27;2295;-70
2023/07/10 03:34:49;;;;;;;;;;;;;;;20.32;100.00;95962.34;10549340;28;2026;-69
2023/07/10 03:39:51;;;;;;;;;;;;;;;20.46;100.00;95957.44;10550932;27;4640;-69
2023/07/10 03:44:54;;;;;;;;;;;;;;;20.69;100.00;95962.59;10550069;28;2433;-69
2023/07/10 03:49:56;;;;;;;;;;;;;;;20.98;100.00;95957.00;10548772;28;1915;-69
2023/07/10 03:54:59;;;;;;;;;;;;;;;21.26;100.00;95967.38;10546256;28;1992;-69
2023/07/10 04:00:01;;;;;;;;;;;;;;;21.64;100.00;95969.09;10544564;28;2012;-69
2023/07/10 04:05:04;;;;;;;;;;;;;;;22.02;100.00;95966.03;10546752;28;2076;-70
2023/07/10 04:10:06;;;;;;;;;;;;;;;22.35;100.00;95972.22;10548205;28;2016;-69
2023/07/10 04:15:09;;;;;;;;;;;;;;;22.79;100.00;95971.56;10545745;28;1929;-70
2023/07/10 04:20:12;;;;;;;;;;;;;;;22.93;100.00;95983.75;10545602;28;2013;-70
2023/07/10 04:25:14;;;;;;;;;;;;;;;22.94;100.00;95968.09;10545833;28;1923;-69
2023/07/10 04:30:17;;;;;;;;;;;;;;;22.95;100.00;95971.63;10549156;27;1938;-69
2023/07/10 04:35:20;;;;;;;;;;;;;;;23.15;100.00;95974.16;10551590;27;1965;-68
2023/07/10 04:40:22;;;;;;;;;;;;;;;23.33;100.00;95973.88;10554547;27;4635;-69
2023/07/10 04:45:24;;;;;;;;;;;;;;;23.32;100.00;95983.25;10561896;27;1948;-69
2023/07/10 04:50:27;;;;;;;;;;;;;;;23.34;100.00;95986.44;10552229;27;1895;-70
2023/07/10 04:55:30;;;;;;;;;;;;;;;23.39;100.00;95980.69;10551247;27;2431;-69
2023/07/10 05:00:33;;;;;;;;;;;;;;;23.44;100.00;95985.94;10551681;27;1906;-69
2023/07/10 05:05:36;;;;;;;;;;;;;;;23.69;100.00;95984.69;10551432;27;1950;-69
2023/07/10 05:10:38;;;;;;;;;;;;;;;23.71;100.00;95987.84;10553318;27;2006;-70
2023/07/10 05:15:41;;;;;;;;;;;;;;;23.82;100.00;95981.84;10551800;27;2026;-72
2023/07/10 05:20:43;;;;;;;;;;;;;;;24.07;100.00;95985.22;10554166;27;1899;-69
2023/07/10 05:25:46;;;;;;;;;;;;;;;24.31;100.00;96003.47;10553039;27;1937;-69
2023/07/10 05:30:49;;;;;;;;;;;;;;;24.79;100.00;96000.25;10557709;27;1946;-71
2023/07/10 05:35:51;;;;;;;;;;;;;;;25.46;100.00;96004.81;10551796;27;1958;-70
2023/07/10 05:40:53;;;;;;;;;;;;;;;26.13;96.73;95994.22;10558071;27;4645;-70
2023/07/10 05:45:56;;;;;;;;;;;;;;;26.35;94.95;95995.38;10551284;27;1887;-70
2023/07/10 05:50:58;;;;;;;;;;;;;;;26.30;94.90;95999.22;10555052;27;2260;-72
2023/07/10 05:56:01;;;;;;;;;;;;;;;26.02;97.24;95998.75;10557810;27;1963;-72
2023/07/10 06:01:04;;;;;;;;;;;;;;;25.91;97.25;95989.53;10548432;27;1934;-71
2023/07/10 06:06:06;;;;;;;;;;;;;;;26.30;94.00;96001.97;10547383;27;1934;-69
2023/07/10 06:11:09;;;;;;;;;;;;;;;26.65;89.91;96014.75;10542824;27;1987;-70
2023/07/10 06:16:12;;;;;;;;;;;;;;;26.67;89.58;96023.44;10544287;27;2113;-73
2023/07/10 06:21:14;;;;;;;;;;;;;;;27.40;83.59;96035.88;10544077;27;2012;-72
2023/07/10 06:26:17;;;;;;;;;;;;;;;27.78;77.66;96036.72;10548457;27;1845;-72
2023/07/10 06:31:20;;;;;;;;;;;;;;;27.93;77.47;96048.72;10544285;27;1977;-72
2023/07/10 06:36:22;;;;;;;;;;;;;;;27.99;77.85;96059.06;10539216;27;1967;-77
2023/07/10 06:41:27;;;;;;;;;;;;;;;28.51;72.38;96056.41;10543429;27;1920;-80
2023/07/10 06:46:30;;;;;;;;;;;;;;;28.42;68.35;96065.00;10542311;27;1878;-78
2023/07/10 06:51:35;;;;;;;;;;;;;;;28.62;68.66;96056.47;10536867;28;1952;-78
2023/07/10 06:56:37;;;;;;;;;;;;;;;29.02;67.22;96048.09;10532809;27;1899;-76
2023/07/10 07:01:40;;;;;;;;;;;;;;;29.16;65.09;96038.28;10536383;27;1972;-77
2023/07/10 07:06:42;;;;;;;;;;;;;;;29.41;59.13;96041.94;10540883;27;1975;-79
2023/07/10 07:11:45;;;;;;;;;;;;;;;29.83;56.41;96063.47;10539368;27;2000;-77
2023/07/10 07:16:47;;;;;;;;;;;;;;;29.88;51.76;96065.09;10540451;27;1941;-77
2023/07/10 07:21:50;;;;;;;;;;;;;;;29.60;53.59;96055.50;10538257;28;2014;-75
2023/07/10 07:26:52;;;;;;;;;;;;;;;29.08;53.73;96074.22;10536331;27;1890;-74
2023/07/10 07:31:55;;;;;;;;;;;;;;;28.15;58.56;96088.41;10542316;27;1923;-76
2023/07/10 07:36:57;;;;;;;;;;;;;;;28.19;61.16;96083.75;10539689;28;1936;-77
2023/07/10 07:42:00;;;;;;;;;;;;;;;29.03;59.45;96093.16;10539261;28;4529;-77
2023/07/10 07:47:03;;;;;;;;;;;;;;;28.92;61.51;96120.75;10536387;28;2312;-75
2023/07/10 07:52:05;;;;;;;;;;;;;;;28.26;63.17;96128.03;10544101;28;2149;-76
2023/07/10 07:57:08;;;;;;;;;;;;;;;28.16;63.88;96120.41;10542425;28;1947;-75
2023/07/10 08:02:11;;;;;;;;;;;;;;;27.89;64.68;96123.28;10541004;28;2036;-78
2023/07/10 08:07:14;;;;;;;;;;;;;;;27.27;70.47;96133.88;10544452;27;2276;-76
2023/07/10 08:12:16;;;;;;;;;;;;;;;27.00;73.55;96152.38;10546665;27;1932;-76
2023/07/10 08:17:19;;;;;;;;;;;;;;;27.26;73.58;96151.63;10547393;27;1880;-76
2023/07/10 08:22:21;;;;;;;;;;;;;;;27.08;76.24;96156.09;10549217;27;1886;-76
2023/07/10 08:27:24;;;;;;;;;;;;;;;27.16;78.06;96166.84;10547693;27;2023;-76
2023/07/10 08:32:26;;;;;;;;;;;;;;;26.98;81.36;96192.56;10548383;27;1967;-76
2023/07/10 08:37:28;;;;;;;;;;;;;;;26.73;85.14;96239.81;10547706;27;2225;-76
2023/07/10 08:42:31;;;;;;;;;;;;;;;26.36;89.13;96243.03;10545028;27;4735;-77
2023/07/10 08:47:33;;;;;;;;;;;;;;;25.92;92.83;96261.81;10549351;27;1898;-75
2023/07/10 08:52:36;;;;;;;;;;;;;;;25.41;100.00;96272.03;10546489;27;2107;-76
2023/07/10 08:57:38;;;;;;;;;;;;;;;24.60;100.00;96282.53;10547367;27;2113;-75
2023/07/10 09:02:42;;;;;;;;;;;;;;;24.06;100.00;96291.19;10546069;27;1926;-73
2023/07/10 09:07:44;;;;;;;;;;;;;;;23.70;100.00;96273.66;10543025;27;1975;-71
2023/07/10 09:12:47;;;;;;;;;;;;;;;23.24;100.00;96244.75;10545828;27;2016;-71
2023/07/10 09:17:50;;;;;;;;;;;;;;;22.76;100.00;96213.38;10543269;27;1994;-69
2023/07/10 09:22:53;;;;;;;;;;;;;;;22.05;100.00;96234.41;10543532;27;2228;-71
2023/07/10 09:27:56;;;;;;;;;;;;;;;21.27;100.00;96258.78;10542197;27;1929;-71
2023/07/10 09:32:58;;;;;;;;;;;;;;;20.90;100.00;96236.59;10541858;27;1980;-73
2023/07/10 09:38:01;;;;;;;;;;;;;;;20.88;100.00;96208.03;10547790;27;2265;-73
2023/07/10 09:43:03;;;;;;;;;;;;;;;20.94;100.00;96234.03;10547116;27;4555;-73
2023/07/10 09:48:06;;;;;;;;;;;;;;;21.37;100.00;96194.72;10538337;27;1947;-72
2023/07/10 09:53:08;;;;;;;;;;;;;;;21.73;100.00;96169.50;10540021;27;1977;-70
2023/07/10 09:58:11;;;;;;;;;;;;;;;22.63;100.00;96153.09;10540994;27;1950;-72
2023/07/10 10:03:13;;;;;;;;;;;;;;;22.64;100.00;96167.59;10541968;27;2130;-69
2023/07/10 10:08:16;;;;;;;;;;;;;;;22.73;100.00;96182.00;10543733;27;1933;-69
2023/07/10 10:13:18;;;;;;;;;;;;;;;22.95;100.00;96175.28;10548154;27;1939;-69
2023/07/10 10:18:21;;;;;;;;;;;;;;;23.51;100.00;96178.19;10534983;27;1947;-70
2023/07/10 10:23:23;;;;;;;;;;;;;;;24.04;100.00;96178.13;10544297;27;1931;-70
2023/07/10 10:28:26;;;;;;;;;;;;;;;24.74;100.00;96195.72;10548694;27;1881;-70
2023/07/10 10:33:28;;;;;;;;;;;;;;;25.10;100.00;96177.38;10548924;27;2575;-71
2023/07/10 10:38:35;;;;;;;;;;;;;;;25.74;100.00;96183.53;10546512;27;1964;-70
2023/07/10 10:43:37;;;;;;;;;;;;;;;26.61;100.00;96182.09;10553051;27;4558;-70
2023/07/10 10:48:40;;;;;;;;;;;;;;;27.38;100.00;96189.25;10549954;27;1944;-70
2023/07/10 10:53:43;;;;;;;;;;;;;;;28.02;100.00;96196.47;10547056;27;1949;-69
2023/07/10 10:58:46;;;;;;;;;;;;;;;28.77;100.00;96190.97;10547094;27;1906;-72
2023/07/10 11:03:48;;;;;;;;;;;;;;;29.00;100.00;96186.03;10545678;27;1955;-72
2023/07/10 11:08:51;;;;;;;;;;;;;;;28.84;100.00;96184.69;10546820;27;1900;-71
2023/07/10 11:13:53;;;;;;;;;;;;;;;29.12;100.00;96184.16;10546899;27;1980;-72
2023/07/10 11:18:56;;;;;;;;;;;;;;;29.28;100.00;96176.38;10542909;27;1930;-71
2023/07/10 11:23:58;;;;;;;;;;;;;;;29.85;98.51;96160.09;10534795;28;1902;-71
2023/07/10 11:29:01;;;;;;;;;;;;;;;30.25;91.64;96152.72;10536701;28;2132;-72
2023/07/10 11:34:10;;;;;;;;;;;;;;;29.62;92.61;96135.44;10534853;27;2323;-73
2023/07/10 11:39:12;;;;;;;;;;;;;;;29.67;91.37;96120.44;10539324;28;1866;-74
2023/07/10 11:44:15;;;;;;;;;;;;;;;30.03;89.49;96113.84;10535555;27;4544;-74
2023/07/10 11:49:17;;;;;;;;;;;;;;;30.40;85.88;96107.19;10539382;28;1950;-76
2023/07/10 11:54:20;;;;;;;;;;;;;;;30.86;81.42;96107.25;10534783;28;1988;-75
2023/07/10 11:59:22;;;;;;;;;;;;;;;30.83;72.18;96093.38;10542371;28;2034;-76
2023/07/10 12:04:25;;;;;;;;;;;;;;;30.81;76.89;96081.88;10541739;28;1945;-73
2023/07/10 12:09:28;;;;;;;;;;;;;;;31.22;67.79;96085.75;10543877;28;1963;-74
2023/07/10 12:14:30;;;;;;;;;;;;;;;31.41;59.16;96081.00;10550054;28;2110;-81
2023/07/10 12:19:33;;;;;;;;;;;;;;;30.99;61.64;96066.00;10561539;28;1971;-86
2023/07/10 12:24:35;;;;;;;;;;;;;;;31.27;55.86;96058.81;10566329;28;2292;-80
2023/07/10 12:29:39;;;;;;;;;;;;;;;31.39;50.67;96061.16;10547171;28;1935;-82
2023/07/10 12:34:41;;;;;;;;;;;;;;;31.52;47.77;96053.97;10557762;28;2030;-84
2023/07/10 12:39:47;;;;;;;;;;;;;;;31.89;45.75;96064.53;10564244;28;2038;-84
2023/07/10 12:44:50;;;;;;;;;;;;;;;31.97;49.00;96057.75;10558327;28;2109;-86
2023/07/10 12:49:52;;;;;;;;;;;;;;;32.15;50.62;96038.16;10550453;28;1942;-80
2023/07/10 12:54:54;;;;;;;;;;;;;;;32.24;50.52;96030.16;10552925;27;1974;-81
2023/07/10 12:59:57;;;;;;;;;;;;;;;32.43;48.83;96041.97;10558665;27;1870;-80
2023/07/10 13:05:00;;;;;;;;;;;;;;;31.24;52.37;96037.38;10558227;27;2043;-80
2023/07/10 13:10:03;;;;;;;;;;;;;;;31.57;53.39;96033.31;10550881;27;1890;-80
2023/07/10 13:15:05;;;;;;;;;;;;;;;31.40;54.35;96023.84;10556185;27;1925;-83
2023/07/10 13:20:08;;;;;;;;;;;;;;;30.70;55.68;96014.50;10558023;27;1886;-82
2023/07/10 13:25:11;;;;;;;;;;;;;;;30.91;56.67;96003.34;10555276;27;1954;-82
2023/07/10 13:30:13;;;;;;;;;;;;;;;30.82;57.22;96006.53;10553336;27;1902;-82
2023/07/10 13:35:16;;;;;;;;;;;;;;;32.31;50.96;95997.91;10549578;27;1970;-83
2023/07/10 13:40:18;;;;;;;;;;;;;;;33.65;47.87;96003.31;10564249;27;4537;-82
2023/07/10 13:45:21;;;;;;;;;;;;;;;33.46;44.28;95990.03;10551163;27;1884;-81
2023/07/10 13:50:23;;;;;;;;;;;;;;;33.53;42.66;95993.53;10553690;27;1929;-79
2023/07/10 13:55:26;;;;;;;;;;;;;;;33.14;43.91;95995.97;10553452;27;1925;-89
2023/07/10 14:00:29;;;;;;;;;;;;;;;33.87;41.81;95996.25;10556589;27;1988;-87
2023/07/10 14:05:32;;;;;;;;;;;;;;;33.01;44.25;95998.50;10559536;27;1890;-86
2023/07/10 14:10:34;;;;;;;;;;;;;;;33.45;42.96;95982.88;10557824;27;1950;-83
2023/07/10 14:15:36;;;;;;;;;;;;;;;34.01;42.45;95980.53;10554202;27;2293;-81
2023/07/10 14:20:39;;;;;;;;;;;;;;;34.05;42.60;95972.91;10552928;27;1863;-71
2023/07/10 14:25:41;;;;;;;;;;;;;;;34.02;43.80;95974.53;10545058;27;1906;-72
2023/07/10 14:30:43;;;;;;;;;;;;;;;33.45;45.15;95971.75;10547400;27;1890;-72
2023/07/10 14:35:47;;;;;;;;;;;;;;;33.55;41.89;95956.88;10543909;27;1973;-72
2023/07/10 14:40:49;;;;;;;;;;;;;;;33.13;39.35;95945.03;10544760;27;4502;-73
2023/07/10 14:45:51;;;;;;;;;;;;;;;32.84;40.25;95954.94;10548320;27;1909;-76
2023/07/10 14:50:54;;;;;;;;;;;;;;;32.44;39.34;95952.50;10547658;27;2025;-75
2023/07/10 14:55:56;;;;;;;;;;;;;;;32.34;39.01;95949.84;10541853;27;1980;-72
2023/07/10 15:00:59;;;;;;;;;;;;;;;32.56;40.23;95942.88;10544492;27;1900;-72
2023/07/10 15:06:02;;;;;;;;;;;;;;;32.76;40.65;95937.50;10559114;27;2009;-86
2023/07/10 15:11:04;;;;;;;;;;;;;;;32.71;41.16;95935.97;10576045;27;1895;-84
2023/07/10 15:16:08;;;;;;;;;;;;;;;32.45;43.56;95931.06;10548855;28;2551;-86
2023/07/10 15:21:10;;;;;;;;;;;;;;;32.56;44.01;95917.81;10557725;27;1967;-87
2023/07/10 15:26:13;;;;;;;;;;;;;;;31.94;44.42;95924.34;10559522;27;1963;-85
2023/07/10 15:31:16;;;;;;;;;;;;;;;31.85;45.75;95933.13;10561579;27;1907;-86
2023/07/10 15:36:19;;;;;;;;;;;;;;;31.65;46.50;95918.94;10538925;28;1937;-86
2023/07/10 15:41:23;;;;;;;;;;;;;;;32.12;45.22;95922.19;10550377;27;1950;-87
2023/07/10 15:46:30;;;;;;;;;;;;;;;32.26;45.46;95919.28;10560597;27;1903;-88
2023/07/10 15:57:01;;;;;;;;;;;;;;;32.54;44.89;95912.69;10554323;28;2496;-86
2023/07/10 16:02:09;;;;;;;;;;;;;;;32.25;46.46;95917.69;10542001;28;1892;-85
2023/07/10 16:07:18;;;;;;;;;;;;;;;32.11;46.91;95917.03;10557499;28;1927;-87
2023/07/10 16:12:38;;;;;;;;;;;;;;;32.08;47.18;95906.75;10552463;28;1886;-86
2023/07/10 16:17:44;;;;;;;;;;;;;;;31.64;50.04;95911.03;10556663;28;2069;-87
2023/07/10 16:22:50;;;;;;;;;;;;;;;31.73;47.72;95903.00;10527995;28;1942;-86
2023/07/10 16:27:58;;;;;;;;;;;;;;;32.05;48.15;95910.31;10554567;28;1900;-85
2023/07/10 16:33:20;;;;;;;;;;;;;;;31.91;49.76;95905.69;10550332;27;1980;-86
2023/07/10 16:38:26;;;;;;;;;;;;;;;31.95;51.28;95903.66;10560865;27;1985;-85
2023/07/10 16:54:17;;;;;;;;;;;;;;;30.67;69.76;95911.47;10557421;27;2045;-83
2023/07/10 16:59:22;;;;;;;;;;;;;;;30.57;73.90;95909.47;10560314;27;1950;-84
2023/07/10 17:04:32;;;;;;;;;;;;;;;30.84;72.41;95914.56;10557901;27;2405;-83
2023/07/10 17:09:47;;;;;;;;;;;;;;;30.27;77.60;95906.34;10537879;27;1913;-84
2023/07/10 17:14:57;;;;;;;;;;;;;;;30.51;77.14;95908.28;10558220;27;1901;-85
2023/07/10 17:20:19;;;;;;;;;;;;;;;30.06;81.22;95905.16;10562399;27;2043;-83
2023/07/10 17:25:23;;;;;;;;;;;;;;;30.01;83.11;95908.31;10546339;27;1928;-83
2023/07/10 17:35:33;;;;;;;;;;;;;;;30.09;84.57;95911.88;10566376;27;2073;-84
2023/07/10 17:40:48;;;;;;;;;;;;;;;30.13;85.16;95916.25;10570919;27;4371;-84
2023/07/10 17:45:53;;;;;;;;;;;;;;;29.95;87.91;95914.66;10568664;27;2135;-84
2023/07/10 17:51:00;;;;;;;;;;;;;;;29.79;90.54;95913.06;10564262;27;2212;-82
2023/07/10 17:56:05;;;;;;;;;;;;;;;29.71;92.16;95916.22;10558695;27;1980;-83
2023/07/10 18:01:22;;;;;;;;;;;;;;;29.51;94.38;95918.53;10552455;27;2475;-86
2023/07/10 18:06:43;;;;;;;;;;;;;;;29.38;96.27;95915.34;10559930;27;1963;-85
2023/07/10 18:11:47;;;;;;;;;;;;;;;29.13;97.97;95925.56;10547272;27;2175;-84
2023/07/10 18:17:03;;;;;;;;;;;;;;;28.87;99.25;95921.88;10548965;27;2024;-88
2023/07/10 18:27:36;;;;;;;;;;;;;;;28.44;98.37;95924.44;10543935;27;2027;-87
2023/07/10 18:32:51;;;;;;;;;;;;;;;28.29;98.93;95931.78;10544723;27;1930;-89
2023/07/10 18:38:02;;;;;;;;;;;;;;;28.18;97.60;95924.59;10543936;27;1984;-89
2023/07/10 18:43:13;;;;;;;;;;;;;;;28.06;97.71;95933.19;10578340;27;2002;-90
2023/07/10 18:48:46;;;;;;;;;;;;;;;27.88;97.27;95936.59;10563656;27;2133;-78
2023/07/10 18:54:06;;;;;;;;;;;;;;;27.77;97.99;95938.47;10547331;27;1971;-80
2023/07/10 19:04:28;;;;;;;;;;;;;;;27.63;98.58;95941.09;10543375;27;1895;-79
2023/07/10 19:14:51;;;;;;;;;;;;;;;27.44;99.65;95940.09;10543328;27;1987;-68
2023/07/10 19:19:55;;;;;;;;;;;;;;;27.42;100.00;95945.22;10547094;27;2055;-69
2023/07/10 19:25:03;;;;;;;;;;;;;;;27.32;100.00;95953.38;10542433;27;1946;-70
2023/07/10 19:30:07;;;;;;;;;;;;;;;27.17;100.00;95955.19;10527989;27;1936;-71
2023/07/10 19:35:11;;;;;;;;;;;;;;;27.17;100.00;95958.75;10543748;28;2023;-70
2023/07/10 19:40:14;;;;;;;;;;;;;;;26.99;100.00;95956.91;10545255;27;4506;-70
2023/07/10 19:45:17;;;;;;;;;;;;;;;26.82;100.00;95975.59;10530855;27;1939;-69
2023/07/10 19:50:20;;;;;;;;;;;;;;;26.69;100.00;95977.00;10549192;27;1910;-68
2023/07/10 19:55:28;;;;;;;;;;;;;;;26.69;100.00;95977.00;10543877;28;2512;-71
2023/07/10 20:00:35;;;;;;;;;;;;;;;26.66;100.00;95983.25;10542732;28;1955;-69
2023/07/10 20:05:40;;;;;;;;;;;;;;;26.53;100.00;95976.34;10536227;27;2147;-68
2023/07/10 20:10:45;;;;;;;;;;;;;;;26.35;100.00;95976.09;10553023;27;1996;-70
2023/07/10 20:15:55;;;;;;;;;;;;;;;26.17;100.00;95984.06;10551945;27;1979;-70
2023/07/10 20:20:58;;;;;;;;;;;;;;;26.04;100.00;95975.19;10535986;27;1963;-71
2023/07/10 20:26:02;;;;;;;;;;;;;;;25.85;100.00;95981.56;10555062;27;1951;-69
2023/07/10 20:31:09;;;;;;;;;;;;;;;25.74;100.00;95974.28;10553411;27;2019;-69
2023/07/10 20:36:18;;;;;;;;;;;;;;;25.63;100.00;95982.31;10550841;27;2028;-69
2023/07/10 20:41:22;;;;;;;;;;;;;;;25.58;100.00;95985.38;10551549;27;4528;-69
2023/07/10 20:46:28;;;;;;;;;;;;;;;25.55;100.00;95997.09;10557612;27;1954;-70
2023/07/10 20:51:32;;;;;;;;;;;;;;;25.56;100.00;95974.72;10552450;27;2216;-68
2023/07/10 20:56:40;;;;;;;;;;;;;;;25.51;100.00;95986.03;10553202;27;1967;-69
2023/07/10 21:01:44;;;;;;;;;;;;;;;25.42;100.00;95971.69;10553399;27;2038;-69
2023/07/10 21:06:50;;;;;;;;;;;;;;;25.22;100.00;95968.19;10550655;27;1906;-69
2023/07/10 21:11:53;;;;;;;;;;;;;;;25.03;100.00;95977.19;10533012;27;2034;-68
2023/07/10 21:16:58;;;;;;;;;;;;;;;24.87;100.00;95972.91;10550996;27;1944;-68
2023/07/10 21:22:03;;;;;;;;;;;;;;;24.76;100.00;95968.00;10550113;27;1919;-68
2023/07/10 21:27:07;;;;;;;;;;;;;;;24.61;100.00;95984.53;10532738;27;1922;-67
2023/07/10 21:32:11;;;;;;;;;;;;;;;24.45;100.00;95976.34;10551886;27;1967;-68
2023/07/10 21:37:15;;;;;;;;;;;;;;;24.24;100.00;95982.91;10532474;27;1961;-75
2023/07/10 21:42:18;;;;;;;;;;;;;;;24.15;100.00;95981.47;10536935;27;4581;-70
2023/07/10 21:47:21;;;;;;;;;;;;;;;24.00;100.00;95985.84;10552601;27;2308;-71
2023/07/10 21:52:26;;;;;;;;;;;;;;;23.88;100.00;95985.94;10550387;27;1947;-68
2023/07/10 21:57:31;;;;;;;;;;;;;;;23.79;100.00;95985.28;10531077;27;2028;-69
2023/07/10 22:02:36;;;;;;;;;;;;;;;23.70;100.00;95989.00;10531102;27;1942;-68
2023/07/10 22:07:45;;;;;;;;;;;;;;;23.65;100.00;95994.75;10550271;27;1954;-68
2023/07/10 22:12:48;;;;;;;;;;;;;;;23.57;100.00;95994.91;10549108;27;1918;-69
2023/07/10 22:17:51;;;;;;;;;;;;;;;23.43;100.00;95992.56;10544695;27;2104;-68
2023/07/10 22:22:54;;;;;;;;;;;;;;;23.32;100.00;95984.03;10528961;27;1890;-68
2023/07/10 22:28:00;;;;;;;;;;;;;;;23.27;100.00;95991.72;10547856;27;2070;-67
2023/07/10 22:33:06;;;;;;;;;;;;;;;23.19;100.00;95994.28;10550503;27;1986;-68
2023/07/10 22:38:09;;;;;;;;;;;;;;;23.03;100.00;95992.63;10547658;27;2009;-67
2023/07/10 22:43:12;;;;;;;;;;;;;;;23.04;100.00;95995.03;10556025;27;4604;-68
2023/07/10 22:48:17;;;;;;;;;;;;;;;22.97;100.00;95999.50;10550192;27;1953;-68
2023/07/10 22:53:22;;;;;;;;;;;;;;;22.87;100.00;96006.28;10527764;28;1981;-68
2023/07/10 22:58:24;;;;;;;;;;;;;;;22.89;100.00;96009.44;10529798;28;1928;-68
2023/07/10 23:03:28;;;;;;;;;;;;;;;22.75;100.00;96000.78;10546671;27;2085;-68
2023/07/10 23:08:32;;;;;;;;;;;;;;;22.65;100.00;95997.41;10552767;27;2265;-68
2023/07/10 23:13:35;;;;;;;;;;;;;;;22.58;100.00;96008.09;10546608;27;2015;-68
2023/07/10 23:18:38;;;;;;;;;;;;;;;22.58;100.00;96010.06;10526849;27;1980;-69
2023/07/10 23:23:44;;;;;;;;;;;;;;;22.57;100.00;96009.25;10549717;27;2006;-69
2023/07/10 23:28:50;;;;;;;;;;;;;;;22.53;100.00;96008.38;10547723;27;1891;-69
2023/07/10 23:33:54;;;;;;;;;;;;;;;22.33;100.00;96001.88;10533894;28;2029;-67
2023/07/10 23:38:58;;;;;;;;;;;;;;;22.25;100.00;95991.03;10545293;27;2412;-69
2023/07/10 23:44:02;;;;;;;;;;;;;;;22.28;100.00;95990.38;10535133;28;4522;-68
2023/07/10 23:49:05;;;;;;;;;;;;;;;22.34;100.00;95992.53;10547666;27;1946;-68
2023/07/10 23:54:08;;;;;;;;;;;;;;;22.34;100.00;95998.00;10547505;28;2072;-68
2023/07/10 23:59:12;;;;;;;;;;;;;;;22.29;100.00;95992.75;10546007;28;1928;-70
